createdAt,value
2023-01-22T00:01:53.393Z,56.47
2023-01-22T00:04:31.017Z,56.33
2023-01-22T00:07:01.739Z,56.38
2023-01-22T00:09:43.726Z,56.47
2023-01-22T00:12:11.779Z,56.11
2023-01-22T00:14:40.631Z,56.03
2023-01-22T00:17:10.522Z,55.89
2023-01-22T00:19:38.806Z,56.57
2023-01-22T00:22:08.390Z,56.38
2023-01-22T00:24:39.887Z,55.93
2023-01-22T00:27:20.182Z,56.33
2023-01-22T00:29:50.208Z,56.23
2023-01-22T00:32:19.772Z,55.95
2023-01-22T00:34:52.708Z,56.06
2023-01-22T00:37:21.220Z,56.28
2023-01-22T00:39:49.502Z,55.88
2023-01-22T00:42:17.585Z,56.20
2023-01-22T00:44:45.579Z,56.23
2023-01-22T00:47:13.869Z,56.32
2023-01-22T00:49:43.231Z,56.08
2023-01-22T00:52:14.270Z,55.96
2023-01-22T00:54:43.943Z,56.31
2023-01-22T00:57:12.839Z,56.04
2023-01-22T00:59:41.538Z,56.34
2023-01-22T01:02:09.887Z,56.22
2023-01-22T01:04:38.693Z,55.83
2023-01-22T01:07:08.119Z,55.87
2023-01-22T01:09:37.804Z,56.08
2023-01-22T01:12:09.471Z,56.18
2023-01-22T01:14:37.834Z,55.98
2023-01-22T01:17:05.864Z,56.06
2023-01-22T01:19:38.447Z,55.77
2023-01-22T01:22:10.058Z,56.07
2023-01-22T01:24:39.319Z,55.97
2023-01-22T01:27:22.162Z,55.88
2023-01-22T01:29:53.098Z,55.92
2023-01-22T01:32:21.145Z,56.36
2023-01-22T01:34:55.210Z,56.09
2023-01-22T01:37:25.527Z,56.36
2023-01-22T01:39:53.809Z,56.22
2023-01-22T01:42:25.973Z,56.02
2023-01-22T01:45:27.285Z,56.32
2023-01-22T01:47:58.996Z,56.00
2023-01-22T01:50:28.089Z,56.06
2023-01-22T01:52:57.994Z,55.93
2023-01-22T01:55:56.169Z,56.07
2023-01-22T01:58:25.798Z,56.33
2023-01-22T02:00:59.706Z,55.97
2023-01-22T02:03:28.369Z,56.12
2023-01-22T02:05:57.975Z,56.06
2023-01-22T02:08:28.664Z,56.09
2023-01-22T02:10:58.099Z,56.24
2023-01-22T02:13:31.109Z,56.15
2023-01-22T02:16:04.181Z,55.92
2023-01-22T02:18:32.325Z,56.31
2023-01-22T02:21:02.127Z,56.17
2023-01-22T02:23:31.938Z,55.93
2023-01-22T02:25:59.987Z,56.22
2023-01-22T02:28:27.955Z,55.85
2023-01-22T02:30:57.183Z,55.96
2023-01-22T02:33:36.392Z,56.17
2023-01-22T02:36:09.082Z,56.23
2023-01-22T02:38:41.307Z,56.04
2023-01-22T02:41:12.111Z,55.95
2023-01-22T02:43:42.177Z,56.13
2023-01-22T02:46:27.179Z,55.89
2023-01-22T02:48:55.239Z,55.92
2023-01-22T02:51:26.804Z,56.18
2023-01-22T02:53:54.811Z,55.90
2023-01-22T02:56:23.266Z,56.17
2023-01-22T02:58:56.354Z,55.90
2023-01-22T03:01:25.980Z,55.72
2023-01-22T03:03:56.188Z,55.99
2023-01-22T03:06:29.395Z,55.74
2023-01-22T03:09:03.855Z,55.87
2023-01-22T03:11:39.121Z,56.12
2023-01-22T03:14:28.589Z,56.19
2023-01-22T03:17:14.544Z,55.86
2023-01-22T03:20:00.097Z,56.02
2023-01-22T03:22:29.976Z,56.15
2023-01-22T03:25:02.754Z,55.85
2023-01-22T03:27:32.491Z,56.20
2023-01-22T03:30:00.700Z,55.97
2023-01-22T03:32:33.797Z,55.93
2023-01-22T03:35:02.786Z,56.17
2023-01-22T03:37:47.159Z,56.02
2023-01-22T03:40:23.628Z,55.89
2023-01-22T03:42:51.771Z,55.87
2023-01-22T03:45:19.765Z,55.76
2023-01-22T03:47:49.267Z,55.94
2023-01-22T03:50:28.622Z,56.15
2023-01-22T03:52:58.891Z,56.08
2023-01-22T03:55:27.956Z,56.12
2023-01-22T03:57:55.986Z,55.65
2023-01-22T04:00:24.116Z,55.98
2023-01-22T04:02:53.636Z,55.68
2023-01-22T04:05:28.535Z,55.79
2023-01-22T04:07:59.029Z,55.91
2023-01-22T04:10:30.614Z,55.57
2023-01-22T04:13:00.805Z,55.67
2023-01-22T04:15:28.903Z,55.44
2023-01-22T04:18:01.467Z,55.30
2023-01-22T04:20:36.100Z,55.80
2023-01-22T04:23:22.390Z,55.81
2023-01-22T04:25:53.138Z,55.88
2023-01-22T04:28:22.057Z,55.51
2023-01-22T04:30:56.418Z,55.32
2023-01-22T04:33:43.138Z,55.31
2023-01-22T04:36:16.333Z,55.12
2023-01-22T04:38:49.448Z,55.22
2023-01-22T04:41:17.996Z,55.26
2023-01-22T04:43:46.028Z,55.50
2023-01-22T04:46:14.404Z,55.25
2023-01-22T04:48:48.432Z,55.28
2023-01-22T04:51:17.428Z,55.29
2023-01-22T04:53:47.590Z,55.26
2023-01-22T04:56:18.321Z,55.09
2023-01-22T04:58:49.614Z,55.26
2023-01-22T05:01:19.912Z,55.13
2023-01-22T05:03:48.153Z,55.08
2023-01-22T05:06:16.524Z,54.95
2023-01-22T05:08:44.497Z,55.16
2023-01-22T05:11:17.005Z,55.32
2023-01-22T05:13:55.479Z,55.15
2023-01-22T05:16:24.054Z,55.18
2023-01-22T05:18:52.058Z,55.05
2023-01-22T05:21:24.842Z,55.00
2023-01-22T05:23:52.985Z,55.30
2023-01-22T05:26:26.071Z,54.85
2023-01-22T05:29:04.696Z,55.14
2023-01-22T05:31:51.055Z,54.95
2023-01-22T05:34:29.956Z,54.76
2023-01-22T05:36:58.438Z,54.75
2023-01-22T05:39:28.313Z,54.68
2023-01-22T05:42:00.015Z,55.02
2023-01-22T05:44:33.432Z,54.78
2023-01-22T05:47:03.054Z,54.92
2023-01-22T05:49:38.313Z,54.85
2023-01-22T05:52:07.387Z,54.53
2023-01-22T05:54:35.325Z,54.75
2023-01-22T05:57:07.277Z,54.61
2023-01-22T05:59:36.415Z,54.64
2023-01-22T06:02:07.070Z,54.51
2023-01-22T06:04:43.017Z,54.25
2023-01-22T06:07:22.992Z,54.85
2023-01-22T06:09:50.975Z,54.68
2023-01-22T06:12:23.371Z,54.40
2023-01-22T06:14:53.698Z,54.62
2023-01-22T06:17:21.759Z,54.46
2023-01-22T06:19:55.421Z,54.12
2023-01-22T06:22:24.052Z,54.44
2023-01-22T06:24:56.435Z,54.16
2023-01-22T06:28:06.117Z,53.90
2023-01-22T06:34:35.808Z,54.11
2023-01-22T06:37:41.831Z,53.99
2023-01-22T06:40:11.363Z,53.89
2023-01-22T06:42:46.937Z,53.97
2023-01-22T06:45:16.571Z,53.52
2023-01-22T06:47:52.461Z,53.54
2023-01-22T06:50:24.189Z,53.47
2023-01-22T06:52:52.405Z,53.37
2023-01-22T06:55:25.630Z,53.36
2023-01-22T06:57:59.958Z,53.16
2023-01-22T07:00:29.655Z,52.99
2023-01-22T07:02:58.376Z,53.33
2023-01-22T07:05:27.465Z,53.35
2023-01-22T07:07:55.838Z,53.37
2023-01-22T07:10:23.898Z,53.16
2023-01-22T07:12:55.295Z,53.32
2023-01-22T07:15:24.171Z,53.39
2023-01-22T07:18:01.134Z,53.35
2023-01-22T07:20:38.055Z,53.04
2023-01-22T07:23:08.375Z,53.12
2023-01-22T07:25:50.533Z,53.06
2023-01-22T07:28:18.706Z,53.13
2023-01-22T07:30:47.227Z,52.80
2023-01-22T07:33:16.801Z,52.52
2023-01-22T07:35:45.403Z,52.84
2023-01-22T07:38:21.077Z,52.54
2023-01-22T07:40:57.597Z,52.72
2023-01-22T07:43:27.024Z,52.74
2023-01-22T07:45:55.242Z,52.44
2023-01-22T07:48:29.814Z,52.57
2023-01-22T07:51:00.516Z,52.60
2023-01-22T07:53:28.927Z,52.48
2023-01-22T07:55:56.980Z,52.34
2023-01-22T07:58:24.981Z,52.32
2023-01-22T08:00:55.356Z,52.31
2023-01-22T08:03:24.771Z,52.32
2023-01-22T08:05:52.774Z,52.35
2023-01-22T08:08:26.206Z,52.04
2023-01-22T08:11:04.080Z,51.73
2023-01-22T08:13:34.913Z,52.08
2023-01-22T08:16:02.974Z,51.74
2023-01-22T08:18:34.896Z,52.02
2023-01-22T08:21:02.965Z,51.92
2023-01-22T08:23:31.080Z,51.88
2023-01-22T08:26:03.378Z,51.68
2023-01-22T08:28:31.446Z,51.77
2023-01-22T08:30:59.905Z,52.08
2023-01-22T08:33:30.440Z,51.67
2023-01-22T08:36:14.466Z,51.50
2023-01-22T08:38:42.575Z,51.47
2023-01-22T08:41:10.694Z,51.50
2023-01-22T08:43:38.634Z,51.38
2023-01-22T08:46:08.164Z,51.61
2023-01-22T08:48:37.980Z,51.32
2023-01-22T08:51:07.691Z,51.74
2023-01-22T08:53:38.945Z,51.51
2023-01-22T08:56:07.915Z,51.61
2023-01-22T08:58:36.423Z,51.58
2023-01-22T09:01:04.557Z,51.66
2023-01-22T09:03:38.372Z,51.80
2023-01-22T09:06:07.874Z,51.57
2023-01-22T09:08:43.241Z,51.65
2023-01-22T09:11:12.495Z,51.43
2023-01-22T09:13:40.711Z,51.49
2023-01-22T09:16:12.976Z,51.54
2023-01-22T09:18:41.029Z,51.41
2023-01-22T09:21:11.731Z,51.07
2023-01-22T09:23:39.784Z,51.02
2023-01-22T09:26:07.745Z,51.07
2023-01-22T09:28:36.240Z,51.17
2023-01-22T09:31:04.493Z,51.20
2023-01-22T09:33:32.548Z,51.15
2023-01-22T09:36:08.505Z,51.12
2023-01-22T09:38:40.306Z,50.86
2023-01-22T09:41:13.260Z,50.86
2023-01-22T09:43:46.750Z,50.61
2023-01-22T09:46:17.831Z,50.46
2023-01-22T09:48:48.997Z,50.63
2023-01-22T09:51:17.171Z,50.44
2023-01-22T09:53:46.694Z,50.52
2023-01-22T09:56:20.882Z,50.38
2023-01-22T09:58:49.930Z,50.33
2023-01-22T10:01:18.349Z,50.46
2023-01-22T10:03:48.028Z,50.28
2023-01-22T10:06:21.100Z,50.24
2023-01-22T10:08:55.306Z,49.85
2023-01-22T10:11:27.875Z,50.04
2023-01-22T10:13:56.804Z,49.99
2023-01-22T10:16:25.674Z,49.94
2023-01-22T10:19:00.652Z,49.33
2023-01-22T10:21:30.758Z,49.55
2023-01-22T10:24:00.831Z,49.60
2023-01-22T10:26:35.332Z,49.34
2023-01-22T10:29:08.458Z,49.31
2023-01-22T10:31:41.563Z,49.38
2023-01-22T10:34:14.330Z,49.33
2023-01-22T10:36:47.725Z,48.90
2023-01-22T10:39:18.120Z,49.53
2023-01-22T10:41:47.981Z,48.56
2023-01-22T10:44:23.117Z,49.13
2023-01-22T10:46:52.848Z,49.08
2023-01-22T10:49:21.825Z,48.65
2023-01-22T10:51:54.694Z,48.39
2023-01-22T10:54:29.720Z,48.36
2023-01-22T10:57:19.614Z,48.83
2023-01-22T10:59:50.954Z,48.46
2023-01-22T11:02:22.980Z,48.67
2023-01-22T11:05:00.548Z,48.68
2023-01-22T11:07:32.775Z,48.77
2023-01-22T11:10:10.842Z,48.72
2023-01-22T11:12:42.527Z,48.84
2023-01-22T11:15:14.960Z,48.82
2023-01-22T11:17:45.210Z,48.81
2023-01-22T11:20:17.724Z,48.81
2023-01-22T11:22:47.544Z,48.95
2023-01-22T11:25:17.102Z,48.84
2023-01-22T11:27:56.274Z,48.93
2023-01-22T11:30:52.295Z,49.09
2023-01-22T11:33:27.044Z,48.92
2023-01-22T11:36:00.033Z,48.94
2023-01-22T11:38:34.043Z,49.38
2023-01-22T11:41:30.052Z,49.30
2023-01-22T11:44:38.404Z,49.35
2023-01-22T11:47:23.327Z,49.23
2023-01-22T11:49:58.991Z,49.67
2023-01-22T11:52:47.000Z,49.68
2023-01-22T11:55:33.081Z,49.63
2023-01-22T11:58:10.611Z,49.53
2023-01-22T12:00:44.576Z,49.51
2023-01-22T12:03:46.493Z,49.45
2023-01-22T12:06:29.404Z,49.82
2023-01-22T12:09:02.906Z,49.51
2023-01-22T12:11:37.324Z,49.48
2023-01-22T12:14:20.834Z,49.32
2023-01-22T12:16:55.685Z,49.65
2023-01-22T12:19:45.144Z,49.59
2023-01-22T12:22:22.064Z,49.70
2023-01-22T12:24:56.002Z,49.42
2023-01-22T12:27:26.144Z,49.89
2023-01-22T12:29:58.721Z,49.48
2023-01-22T12:32:27.727Z,49.68
2023-01-22T12:34:57.520Z,49.62
2023-01-22T12:37:26.731Z,49.27
2023-01-22T12:40:06.137Z,49.00
2023-01-22T12:42:36.892Z,49.61
2023-01-22T12:45:15.066Z,49.32
2023-01-22T12:47:51.637Z,49.56
2023-01-22T12:50:23.919Z,49.32
2023-01-22T12:52:59.307Z,49.56
2023-01-22T12:55:34.984Z,49.54
2023-01-22T12:58:03.353Z,49.63
2023-01-22T13:00:39.325Z,49.48
2023-01-22T13:03:30.979Z,49.66
2023-01-22T13:06:00.304Z,49.35
2023-01-22T13:08:36.387Z,49.52
2023-01-22T13:11:07.801Z,49.39
2023-01-22T13:13:44.588Z,49.15
2023-01-22T13:19:18.551Z,49.19
2023-01-22T13:21:47.802Z,49.20
2023-01-22T13:24:17.865Z,49.55
2023-01-22T13:26:52.273Z,49.32
2023-01-22T13:29:22.105Z,49.13
2023-01-22T13:31:55.671Z,48.89
2023-01-22T13:34:23.844Z,49.39
2023-01-22T13:36:52.279Z,49.16
2023-01-22T13:39:22.367Z,49.42
2023-01-22T13:41:52.244Z,49.20
2023-01-22T13:44:21.683Z,48.83
2023-01-22T13:46:49.715Z,48.74
2023-01-22T13:49:22.498Z,48.81
2023-01-22T13:51:50.915Z,48.72
2023-01-22T13:54:23.654Z,49.15
2023-01-22T13:56:53.256Z,48.93
2023-01-22T13:59:23.080Z,49.18
2023-01-22T14:01:52.171Z,48.98
2023-01-22T14:04:30.393Z,48.82
2023-01-22T14:06:58.617Z,49.44
2023-01-22T14:09:30.861Z,49.16
2023-01-22T14:11:59.108Z,49.19
2023-01-22T14:14:36.541Z,48.89
2023-01-22T14:17:04.926Z,48.99
2023-01-22T14:19:36.683Z,49.26
2023-01-22T14:22:06.087Z,49.18
2023-01-22T14:24:34.234Z,49.13
2023-01-22T14:27:04.624Z,49.01
2023-01-22T14:29:32.981Z,49.13
2023-01-22T14:34:44.990Z,48.60
2023-01-22T14:37:15.865Z,48.45
2023-01-22T14:39:44.089Z,48.58
2023-01-22T14:42:14.399Z,48.75
2023-01-22T14:44:42.451Z,48.43
2023-01-22T14:47:13.628Z,48.59
2023-01-22T14:49:41.752Z,48.81
2023-01-22T14:52:12.945Z,48.78
2023-01-22T14:54:41.099Z,48.55
2023-01-22T14:57:23.933Z,48.63
2023-01-22T14:59:52.191Z,48.32
2023-01-22T15:02:20.602Z,48.29
2023-01-22T15:04:48.765Z,48.49
2023-01-22T15:07:18.213Z,48.73
2023-01-22T15:09:46.552Z,49.13
2023-01-22T15:12:17.178Z,48.71
2023-01-22T15:14:45.444Z,48.67
2023-01-22T15:17:14.686Z,48.13
2023-01-22T15:19:42.840Z,48.23
2023-01-22T15:22:34.629Z,48.17
2023-01-22T15:25:02.842Z,48.39
2023-01-22T15:27:30.933Z,48.34
2023-01-22T15:29:59.018Z,48.00
2023-01-22T15:32:27.615Z,47.99
2023-01-22T15:34:58.064Z,47.79
2023-01-22T15:37:30.004Z,47.75
2023-01-22T15:39:59.129Z,47.86
2023-01-22T15:42:28.419Z,47.94
2023-01-22T15:44:56.810Z,47.54
2023-01-22T15:47:29.857Z,47.77
2023-01-22T15:49:57.926Z,47.79
2023-01-22T15:52:29.786Z,47.71
2023-01-22T15:55:01.999Z,47.63
2023-01-22T15:57:30.252Z,47.38
2023-01-22T15:59:58.263Z,47.15
2023-01-22T16:02:26.314Z,47.33
2023-01-22T16:04:54.657Z,47.40
2023-01-22T16:07:22.817Z,47.23
2023-01-22T16:09:53.415Z,47.59
2023-01-22T16:12:22.703Z,47.05
2023-01-22T16:14:51.922Z,47.15
2023-01-22T16:17:22.739Z,47.05
2023-01-22T16:19:52.111Z,47.02
2023-01-22T16:22:20.076Z,47.13
2023-01-22T16:24:48.138Z,47.73
2023-01-22T16:27:19.901Z,47.78
2023-01-22T16:29:48.212Z,47.58
2023-01-22T16:32:18.951Z,47.87
2023-01-22T16:34:48.277Z,47.83
2023-01-22T16:37:24.943Z,47.62
2023-01-22T16:39:53.047Z,47.82
2023-01-22T16:42:25.934Z,48.16
2023-01-22T16:44:56.890Z,47.99
2023-01-22T16:47:25.009Z,48.13
2023-01-22T16:49:55.061Z,47.84
2023-01-22T16:52:23.271Z,48.13
2023-01-22T16:54:51.344Z,48.20
2023-01-22T16:57:22.285Z,47.96
2023-01-22T16:59:51.630Z,47.84
2023-01-22T17:02:19.990Z,48.25
2023-01-22T17:04:48.192Z,47.89
2023-01-22T17:07:32.211Z,48.25
2023-01-22T17:10:01.606Z,48.16
2023-01-22T17:12:29.850Z,48.10
2023-01-22T17:15:03.231Z,48.19
2023-01-22T17:17:34.085Z,48.26
2023-01-22T17:20:04.601Z,48.09
2023-01-22T17:22:41.925Z,48.15
2023-01-22T17:25:10.297Z,48.13
2023-01-22T17:27:39.636Z,48.23
2023-01-22T17:30:11.629Z,48.18
2023-01-22T17:32:42.650Z,48.03
2023-01-22T17:35:13.787Z,48.49
2023-01-22T17:37:42.033Z,48.32
2023-01-22T17:40:11.272Z,48.08
2023-01-22T17:42:39.388Z,48.29
2023-01-22T17:45:11.400Z,48.18
2023-01-22T17:47:39.638Z,48.36
2023-01-22T17:50:08.852Z,48.38
2023-01-22T17:52:37.091Z,48.49
2023-01-22T17:55:05.886Z,48.55
2023-01-22T17:57:35.554Z,48.41
2023-01-22T18:00:03.658Z,48.37
2023-01-22T18:02:40.744Z,48.47
2023-01-22T18:05:10.459Z,48.48
2023-01-22T18:07:38.954Z,48.45
2023-01-22T18:10:07.402Z,48.43
2023-01-22T18:12:35.656Z,48.57
2023-01-22T18:15:06.376Z,48.63
2023-01-22T18:17:35.267Z,48.47
2023-01-22T18:20:08.064Z,48.52
2023-01-22T18:22:36.364Z,48.61
2023-01-22T18:25:04.489Z,48.69
2023-01-22T18:27:33.747Z,48.44
2023-01-22T18:30:08.184Z,48.11
2023-01-22T18:32:39.515Z,47.86
2023-01-22T18:35:10.417Z,48.03
2023-01-22T18:37:38.510Z,48.30
2023-01-22T18:40:07.724Z,48.00
2023-01-22T18:42:37.008Z,48.33
2023-01-22T18:45:07.983Z,47.86
2023-01-22T18:47:37.312Z,48.27
2023-01-22T18:50:05.822Z,48.29
2023-01-22T18:52:44.815Z,48.37
2023-01-22T18:55:12.890Z,48.08
2023-01-22T18:57:43.034Z,48.49
2023-01-22T19:00:13.397Z,48.50
2023-01-22T19:02:41.554Z,48.40
2023-01-22T19:05:11.981Z,48.20
2023-01-22T19:07:44.455Z,48.48
2023-01-22T19:10:14.036Z,48.53
2023-01-22T19:12:44.699Z,48.62
2023-01-22T19:15:15.770Z,48.59
2023-01-22T19:17:43.849Z,48.43
2023-01-22T19:20:15.620Z,48.70
2023-01-22T19:22:45.172Z,49.02
2023-01-22T19:25:13.258Z,48.80
2023-01-22T19:27:41.297Z,48.93
2023-01-22T19:30:10.538Z,48.77
2023-01-22T19:32:41.221Z,48.77
2023-01-22T19:35:10.009Z,49.07
2023-01-22T19:37:38.014Z,48.76
2023-01-22T19:40:10.506Z,48.55
2023-01-22T19:42:41.434Z,48.60
2023-01-22T19:45:10.814Z,48.65
2023-01-22T19:47:38.781Z,48.65
2023-01-22T19:50:10.676Z,48.68
2023-01-22T19:52:38.777Z,48.50
2023-01-22T19:55:11.073Z,48.52
2023-01-22T19:57:40.447Z,48.04
2023-01-22T20:00:13.714Z,48.57
2023-01-22T20:02:51.523Z,48.54
2023-01-22T20:05:22.651Z,48.51
2023-01-22T20:07:52.194Z,48.61
2023-01-22T20:10:21.551Z,48.53
2023-01-22T20:12:50.970Z,48.54
2023-01-22T20:15:19.543Z,48.31
2023-01-22T20:17:50.104Z,48.57
2023-01-22T20:20:18.425Z,48.27
2023-01-22T20:22:46.427Z,48.48
2023-01-22T20:25:15.360Z,48.75
2023-01-22T20:27:44.709Z,48.42
2023-01-22T20:30:13.349Z,48.62
2023-01-22T20:32:41.335Z,48.68
2023-01-22T20:35:11.747Z,48.61
2023-01-22T20:37:39.892Z,48.66
2023-01-22T20:40:09.127Z,48.75
2023-01-22T20:42:38.388Z,49.17
2023-01-22T20:45:09.095Z,48.85
2023-01-22T20:47:40.580Z,48.85
2023-01-22T20:50:12.899Z,48.83
2023-01-22T20:52:40.884Z,49.23
2023-01-22T20:55:10.642Z,49.01
2023-01-22T20:57:38.910Z,49.13
2023-01-22T21:00:09.664Z,49.26
2023-01-22T21:02:37.636Z,49.33
2023-01-22T21:05:06.702Z,49.17
2023-01-22T21:07:36.934Z,49.32
2023-01-22T21:10:05.534Z,49.37
2023-01-22T21:12:33.510Z,49.45
2023-01-22T21:15:03.016Z,49.56
2023-01-22T21:17:32.689Z,49.55
2023-01-22T21:20:00.615Z,49.60
2023-01-22T21:22:28.749Z,49.47
2023-01-22T21:24:56.686Z,49.90
2023-01-22T21:27:24.795Z,49.78
2023-01-22T21:29:52.789Z,49.75
2023-01-22T21:32:20.774Z,49.66
2023-01-22T21:34:50.491Z,49.70
2023-01-22T21:37:18.534Z,50.03
2023-01-22T21:39:46.480Z,49.83
2023-01-22T21:42:28.362Z,49.84
2023-01-22T21:45:14.026Z,50.09
2023-01-22T21:47:41.956Z,49.91
2023-01-22T21:50:12.464Z,49.84
2023-01-22T21:52:42.484Z,50.22
2023-01-22T21:55:11.990Z,50.03
2023-01-22T21:57:39.953Z,50.13
2023-01-22T22:00:09.539Z,50.02
2023-01-22T22:02:37.670Z,50.15
2023-01-22T22:05:07.316Z,50.30
2023-01-22T22:07:39.567Z,50.37
2023-01-22T22:10:14.098Z,49.93
2023-01-22T22:12:42.267Z,50.34
2023-01-22T22:15:13.119Z,50.40
2023-01-22T22:17:41.282Z,50.07
2023-01-22T22:20:11.118Z,50.08
2023-01-22T22:22:40.575Z,50.25
2023-01-22T22:25:09.453Z,50.21
2023-01-22T22:27:37.459Z,50.25
2023-01-22T22:30:06.149Z,50.37
2023-01-22T22:32:34.131Z,50.20
2023-01-22T22:35:04.147Z,50.36
2023-01-22T22:37:32.192Z,50.54
2023-01-22T22:40:02.938Z,50.24
2023-01-22T22:42:31.199Z,50.46
2023-01-22T22:44:59.157Z,50.28
2023-01-22T22:47:27.108Z,50.06
2023-01-22T22:49:55.044Z,50.32
2023-01-22T22:52:23.068Z,50.47
2023-01-22T22:54:51.058Z,50.10
2023-01-22T22:57:20.459Z,50.34
2023-01-22T22:59:48.448Z,50.38
2023-01-22T23:02:16.373Z,50.46
2023-01-22T23:04:44.581Z,50.40
2023-01-22T23:07:20.037Z,50.45
2023-01-22T23:09:50.437Z,50.48
2023-01-22T23:12:22.250Z,50.53
2023-01-22T23:14:53.196Z,50.61
2023-01-22T23:17:21.307Z,50.65
2023-01-22T23:19:49.323Z,50.62
2023-01-22T23:22:17.660Z,50.89
2023-01-22T23:24:47.212Z,50.81
2023-01-22T23:27:15.233Z,50.69
2023-01-22T23:29:46.908Z,50.93
2023-01-22T23:32:23.098Z,50.87
2023-01-22T23:34:51.139Z,50.66
2023-01-22T23:37:19.181Z,50.89
2023-01-22T23:39:51.210Z,51.02
2023-01-22T23:42:19.262Z,51.13
2023-01-22T23:44:48.745Z,50.84
2023-01-22T23:47:16.856Z,51.15
2023-01-22T23:49:44.816Z,51.02
2023-01-22T23:52:12.852Z,51.19
2023-01-22T23:54:40.784Z,51.07
2023-01-22T23:57:08.861Z,51.57
2023-01-22T23:59:39.285Z,51.25
